createdAt,value
2023-06-17T00:00:42.884Z,12.57
2023-06-17T00:03:09.996Z,12.49
2023-06-17T00:05:37.316Z,12.40
2023-06-17T00:08:04.023Z,12.35
2023-06-17T00:10:30.783Z,12.30
2023-06-17T00:12:59.524Z,12.22
2023-06-17T00:15:26.399Z,12.15
2023-06-17T00:17:53.317Z,12.08
2023-06-17T00:20:20.276Z,12.08
2023-06-17T00:22:48.162Z,12.04
2023-06-17T00:25:14.812Z,11.95
2023-06-17T00:27:42.516Z,11.88
2023-06-17T00:30:09.655Z,11.83
2023-06-17T00:32:36.693Z,11.76
2023-06-17T00:35:05.149Z,11.78
2023-06-17T00:37:31.989Z,11.75
2023-06-17T00:39:59.034Z,11.73
2023-06-17T00:42:25.718Z,11.70
2023-06-17T00:44:52.494Z,11.65
2023-06-17T00:47:19.181Z,11.67
2023-06-17T00:49:48.324Z,11.65
2023-06-17T00:52:35.722Z,11.63
2023-06-17T00:55:02.586Z,11.61
2023-06-17T00:57:30.427Z,11.60
2023-06-17T00:59:57.084Z,11.58
2023-06-17T01:02:27.095Z,11.58
2023-06-17T01:04:55.308Z,11.60
2023-06-17T01:07:47.373Z,11.63
2023-06-17T01:10:22.218Z,11.62
2023-06-17T01:12:49.853Z,11.53
2023-06-17T01:15:18.368Z,11.45
2023-06-17T01:17:47.544Z,11.40
2023-06-17T01:20:14.937Z,11.37
2023-06-17T01:22:42.329Z,11.33
2023-06-17T01:25:10.675Z,11.30
2023-06-17T01:27:37.273Z,11.24
2023-06-17T01:30:04.172Z,11.18
2023-06-17T01:32:31.201Z,11.15
2023-06-17T01:35:03.465Z,11.19
2023-06-17T01:37:36.456Z,11.07
2023-06-17T01:40:06.045Z,11.06
2023-06-17T01:42:36.790Z,11.03
2023-06-17T01:45:07.068Z,11.00
2023-06-17T01:47:34.617Z,11.03
2023-06-17T01:50:03.447Z,10.95
2023-06-17T01:52:30.188Z,10.90
2023-06-17T01:54:57.687Z,10.88
2023-06-17T01:57:24.593Z,10.85
2023-06-17T01:59:52.497Z,10.86
2023-06-17T02:02:19.199Z,10.86
2023-06-17T02:04:48.388Z,10.86
2023-06-17T02:07:17.741Z,10.85
2023-06-17T02:09:46.116Z,10.87
2023-06-17T02:12:12.906Z,10.84
2023-06-17T02:14:39.745Z,10.80
2023-06-17T02:17:06.392Z,10.80
2023-06-17T02:19:33.206Z,10.79
2023-06-17T02:22:00.965Z,10.79
2023-06-17T02:24:27.647Z,10.80
2023-06-17T02:26:54.990Z,10.78
2023-06-17T02:29:21.559Z,10.75
2023-06-17T02:31:48.177Z,10.75
2023-06-17T02:34:14.780Z,10.73
2023-06-17T02:36:41.379Z,10.69
2023-06-17T02:39:08.463Z,10.67
2023-06-17T02:41:34.996Z,10.65
2023-06-17T02:44:01.919Z,10.62
2023-06-17T02:46:28.835Z,10.57
2023-06-17T02:48:56.387Z,10.55
2023-06-17T02:51:23.316Z,10.58
2023-06-17T02:53:49.902Z,10.56
2023-06-17T02:56:16.920Z,10.59
2023-06-17T02:58:46.880Z,10.53
2023-06-17T03:01:13.987Z,10.50
2023-06-17T03:03:43.039Z,10.47
2023-06-17T03:06:10.434Z,10.49
2023-06-17T03:08:39.302Z,10.49
2023-06-17T03:11:05.996Z,10.51
2023-06-17T03:13:32.620Z,10.47
2023-06-17T03:16:02.329Z,10.44
2023-06-17T03:18:29.437Z,10.47
2023-06-17T03:20:56.244Z,10.43
2023-06-17T03:23:23.267Z,10.45
2023-06-17T03:25:51.281Z,10.50
2023-06-17T03:28:19.007Z,10.50
2023-06-17T03:30:46.238Z,10.52
2023-06-17T03:33:14.444Z,10.49
2023-06-17T03:35:42.792Z,10.51
2023-06-17T03:38:10.625Z,10.51
2023-06-17T03:40:37.830Z,10.57
2023-06-17T03:43:04.953Z,10.64
2023-06-17T03:45:39.263Z,10.70
2023-06-17T03:48:06.253Z,10.73
2023-06-17T03:50:32.854Z,10.79
2023-06-17T03:52:59.833Z,10.85
2023-06-17T03:55:26.606Z,10.86
2023-06-17T03:57:53.893Z,10.92
2023-06-17T04:00:21.063Z,10.97
2023-06-17T04:02:48.770Z,11.05
2023-06-17T04:05:16.564Z,11.14
2023-06-17T04:07:43.683Z,11.18
2023-06-17T04:10:11.022Z,11.26
2023-06-17T04:12:38.886Z,11.27
2023-06-17T04:15:08.710Z,11.23
2023-06-17T04:17:38.686Z,11.21
2023-06-17T04:20:12.305Z,11.21
2023-06-17T04:22:40.614Z,11.22
2023-06-17T04:25:08.987Z,11.29
2023-06-17T04:27:37.672Z,11.37
2023-06-17T04:30:05.344Z,11.56
2023-06-17T04:32:36.185Z,11.78
2023-06-17T04:35:06.134Z,11.99
2023-06-17T04:37:35.653Z,12.11
2023-06-17T04:40:07.791Z,12.11
2023-06-17T04:42:37.742Z,12.18
2023-06-17T04:45:04.778Z,12.35
2023-06-17T04:47:31.502Z,12.49
2023-06-17T04:49:59.002Z,12.63
2023-06-17T04:52:25.919Z,12.77
2023-06-17T04:54:52.772Z,12.86
2023-06-17T04:57:20.189Z,12.92
2023-06-17T04:59:46.749Z,13.03
2023-06-17T05:02:14.591Z,13.17
2023-06-17T05:04:41.998Z,13.34
2023-06-17T05:07:08.887Z,13.47
2023-06-17T05:09:35.453Z,13.54
2023-06-17T05:12:02.161Z,13.73
2023-06-17T05:14:28.820Z,13.97
2023-06-17T05:16:55.669Z,14.21
2023-06-17T05:19:22.710Z,14.42
2023-06-17T05:21:49.346Z,14.62
2023-06-17T05:24:16.177Z,14.84
2023-06-17T05:26:42.865Z,15.06
2023-06-17T05:29:09.511Z,15.30
2023-06-17T05:31:36.043Z,15.44
2023-06-17T05:37:36.238Z,15.85
2023-06-17T05:40:03.372Z,16.11
2023-06-17T05:42:30.940Z,16.46
2023-06-17T05:45:22.846Z,16.75
2023-06-17T05:48:03.996Z,16.91
2023-06-17T05:50:44.049Z,17.17
2023-06-17T05:53:39.055Z,17.58
2023-06-17T05:56:18.897Z,17.80
2023-06-17T05:58:45.772Z,17.98
2023-06-17T06:09:43.623Z,17.81
2023-06-17T06:12:11.294Z,18.18
2023-06-17T06:17:29.345Z,18.63
2023-06-17T06:20:47.987Z,18.77
2023-06-17T06:23:31.230Z,18.99
2023-06-17T06:25:57.886Z,19.13
2023-06-17T06:31:14.124Z,18.96
2023-06-17T06:33:40.642Z,19.10
2023-06-17T06:36:17.281Z,19.43
2023-06-17T06:38:43.815Z,19.71
2023-06-17T06:41:38.345Z,19.85
2023-06-17T06:44:04.949Z,19.99
2023-06-17T06:50:27.559Z,20.16
2023-06-17T06:53:00.062Z,20.42
2023-06-17T06:59:41.992Z,21.07
2023-06-17T07:06:04.623Z,21.35
2023-06-17T07:09:01.932Z,21.51
2023-06-17T07:11:31.714Z,21.53
2023-06-17T07:14:00.978Z,21.77
2023-06-17T07:16:27.909Z,22.09
2023-06-17T07:18:54.719Z,22.01
2023-06-17T07:21:21.251Z,22.23
2023-06-17T07:23:47.938Z,22.42
2023-06-17T07:26:14.540Z,22.62
2023-06-17T07:28:41.139Z,22.71
2023-06-17T07:31:07.813Z,22.81
2023-06-17T07:33:34.578Z,23.90
2023-06-17T07:36:01.205Z,25.45
2023-06-17T07:38:27.802Z,26.21
2023-06-17T07:40:54.385Z,27.28
2023-06-17T07:43:20.942Z,28.34
2023-06-17T07:45:47.550Z,29.23
2023-06-17T07:48:14.213Z,30.10
2023-06-17T07:50:41.332Z,30.94
2023-06-17T07:53:07.874Z,31.52
2023-06-17T07:55:37.069Z,31.58
2023-06-17T07:58:03.845Z,31.75
2023-06-17T08:00:30.684Z,32.78
2023-06-17T08:02:57.374Z,33.32
2023-06-17T08:05:24.034Z,34.25
2023-06-17T08:07:50.871Z,34.46
2023-06-17T08:10:17.519Z,34.92
2023-06-17T08:12:48.152Z,35.42
2023-06-17T08:15:14.918Z,35.41
2023-06-17T08:17:41.895Z,35.92
2023-06-17T08:20:11.231Z,36.12
2023-06-17T08:22:37.984Z,36.39
2023-06-17T08:25:04.748Z,36.47
2023-06-17T08:27:32.315Z,37.49
2023-06-17T08:29:59.910Z,37.61
2023-06-17T08:32:26.748Z,37.83
2023-06-17T08:34:53.365Z,37.93
2023-06-17T08:37:19.924Z,38.88
2023-06-17T08:39:46.481Z,39.23
2023-06-17T08:42:13.085Z,39.54
2023-06-17T08:44:43.436Z,39.92
2023-06-17T08:47:14.758Z,38.92
2023-06-17T08:49:44.215Z,36.56
2023-06-17T08:52:12.602Z,35.56
2023-06-17T08:54:41.609Z,35.70
2023-06-17T08:57:14.915Z,37.21
2023-06-17T08:59:42.045Z,38.29
2023-06-17T09:02:08.996Z,38.24
2023-06-17T09:04:36.529Z,37.31
2023-06-17T09:07:03.676Z,38.11
2023-06-17T09:09:37.396Z,38.78
2023-06-17T09:12:06.568Z,39.33
2023-06-17T09:14:34.164Z,39.44
2023-06-17T09:17:02.171Z,40.50
2023-06-17T09:19:32.592Z,41.24
2023-06-17T09:22:07.725Z,40.66
2023-06-17T09:24:36.440Z,40.62
2023-06-17T09:27:03.564Z,40.23
2023-06-17T09:29:34.830Z,40.95
2023-06-17T09:32:04.463Z,41.58
2023-06-17T09:34:31.062Z,41.48
2023-06-17T09:37:02.296Z,41.85
2023-06-17T09:39:34.329Z,41.46
2023-06-17T09:42:09.653Z,38.80
2023-06-17T09:44:38.751Z,38.94
2023-06-17T09:47:07.723Z,40.25
2023-06-17T09:49:35.279Z,40.57
2023-06-17T09:52:03.918Z,41.15
2023-06-17T09:54:32.079Z,39.66
2023-06-17T09:57:00.210Z,36.14
2023-06-17T09:59:27.762Z,32.91
2023-06-17T10:01:55.906Z,31.43
2023-06-17T10:04:22.515Z,30.38
2023-06-17T10:06:51.451Z,29.67
2023-06-17T10:09:18.362Z,29.12
2023-06-17T10:11:48.559Z,32.14
2023-06-17T10:14:22.306Z,34.18
2023-06-17T10:16:50.529Z,33.01
2023-06-17T10:19:26.679Z,32.30
2023-06-17T10:21:55.877Z,31.29
2023-06-17T10:24:24.482Z,30.13
2023-06-17T10:26:52.364Z,29.05
2023-06-17T10:29:19.451Z,28.26
2023-06-17T10:31:46.260Z,27.44
2023-06-17T10:34:22.841Z,26.87
2023-06-17T10:36:59.614Z,26.64
2023-06-17T10:39:26.194Z,26.55
2023-06-17T10:42:03.390Z,26.76
2023-06-17T10:44:37.027Z,27.28
2023-06-17T10:47:15.409Z,27.82
2023-06-17T10:49:43.588Z,29.91
2023-06-17T10:52:14.953Z,30.17
2023-06-17T10:54:53.594Z,30.12
2023-06-17T10:57:34.244Z,30.47
2023-06-17T11:00:11.461Z,32.25
2023-06-17T11:02:41.840Z,32.71
2023-06-17T11:05:09.748Z,31.81
2023-06-17T11:07:37.129Z,34.45
2023-06-17T11:10:04.147Z,33.47
2023-06-17T11:12:32.022Z,32.44
2023-06-17T11:15:01.465Z,34.27
2023-06-17T11:17:28.467Z,35.84
2023-06-17T11:19:55.146Z,34.96
2023-06-17T11:22:23.257Z,34.52
2023-06-17T11:24:51.050Z,36.30
2023-06-17T11:27:18.485Z,38.82
2023-06-17T11:29:45.190Z,39.04
2023-06-17T11:32:11.935Z,40.35
2023-06-17T11:34:38.711Z,40.94
2023-06-17T11:37:10.734Z,40.85
2023-06-17T11:39:39.375Z,40.91
2023-06-17T11:42:07.753Z,41.07
2023-06-17T11:44:36.302Z,40.80
2023-06-17T11:47:10.677Z,41.14
2023-06-17T11:49:41.864Z,38.35
2023-06-17T11:52:13.077Z,38.47
2023-06-17T11:54:50.153Z,39.26
2023-06-17T11:57:22.395Z,40.63
2023-06-17T11:59:49.947Z,41.39
2023-06-17T12:02:17.026Z,41.48
2023-06-17T12:04:45.066Z,41.16
2023-06-17T12:07:11.954Z,40.32
2023-06-17T12:09:49.286Z,40.06
2023-06-17T12:12:29.478Z,38.67
2023-06-17T12:15:14.789Z,36.24
2023-06-17T12:17:46.057Z,34.71
2023-06-17T12:20:14.086Z,33.21
2023-06-17T12:22:41.009Z,32.30
2023-06-17T12:25:08.005Z,31.56
2023-06-17T12:27:34.658Z,30.76
2023-06-17T12:30:02.128Z,30.12
2023-06-17T12:32:29.767Z,30.06
2023-06-17T12:34:56.365Z,30.38
2023-06-17T12:37:28.921Z,30.87
2023-06-17T12:40:04.448Z,30.95
2023-06-17T12:42:31.301Z,30.37
2023-06-17T12:44:58.994Z,30.03
2023-06-17T12:47:26.507Z,29.92
2023-06-17T12:49:53.295Z,30.13
2023-06-17T12:52:20.191Z,30.08
2023-06-17T12:54:47.140Z,29.47
2023-06-17T12:57:16.037Z,28.99
2023-06-17T12:59:42.692Z,28.67
2023-06-17T13:02:09.343Z,28.24
2023-06-17T13:04:36.069Z,27.83
2023-06-17T13:07:02.990Z,27.78
2023-06-17T13:09:29.536Z,27.78
2023-06-17T13:11:56.298Z,27.80
2023-06-17T13:14:23.938Z,27.78
2023-06-17T13:16:50.870Z,27.61
2023-06-17T13:19:18.402Z,27.65
2023-06-17T13:21:44.962Z,27.79
2023-06-17T13:24:14.631Z,27.75
2023-06-17T13:26:42.262Z,27.66
2023-06-17T13:29:09.371Z,27.59
2023-06-17T13:31:36.022Z,27.53
2023-06-17T13:34:02.710Z,27.48
2023-06-17T13:36:29.520Z,27.36
2023-06-17T13:38:56.341Z,27.40
2023-06-17T13:41:23.424Z,27.30
2023-06-17T13:43:50.455Z,27.20
2023-06-17T13:46:17.168Z,26.86
2023-06-17T13:48:44.021Z,26.76
2023-06-17T13:51:10.646Z,26.82
2023-06-17T13:53:38.077Z,26.90
2023-06-17T13:56:05.010Z,26.74
2023-06-17T13:58:31.775Z,26.80
2023-06-17T14:00:59.052Z,26.70
2023-06-17T14:03:25.779Z,26.57
2023-06-17T14:05:52.666Z,26.69
2023-06-17T14:08:21.464Z,26.77
2023-06-17T14:10:49.595Z,26.87
2023-06-17T14:13:16.741Z,26.96
2023-06-17T14:15:44.466Z,26.94
2023-06-17T14:18:12.330Z,26.91
2023-06-17T14:20:38.933Z,26.97
2023-06-17T14:23:05.980Z,26.94
2023-06-17T14:25:32.936Z,26.93
2023-06-17T14:28:00.851Z,26.97
2023-06-17T14:30:27.435Z,26.87
2023-06-17T14:32:54.027Z,26.67
2023-06-17T14:35:20.788Z,26.93
2023-06-17T14:37:49.418Z,26.85
2023-06-17T14:40:17.040Z,26.29
2023-06-17T14:42:45.643Z,26.26
2023-06-17T14:45:14.230Z,26.17
2023-06-17T14:47:41.489Z,26.22
2023-06-17T14:50:09.939Z,26.25
2023-06-17T14:52:36.598Z,26.22
2023-06-17T14:55:04.238Z,26.40
2023-06-17T14:57:33.304Z,26.64
2023-06-17T15:00:00.498Z,26.95
2023-06-17T15:02:30.926Z,27.22
2023-06-17T15:04:57.580Z,27.40
2023-06-17T15:07:25.304Z,27.43
2023-06-17T15:09:51.895Z,27.24
2023-06-17T15:12:18.408Z,27.22
2023-06-17T15:14:44.961Z,27.14
2023-06-17T15:17:11.566Z,27.12
2023-06-17T15:19:38.206Z,26.97
2023-06-17T15:22:05.030Z,27.05
2023-06-17T15:24:31.715Z,26.85
2023-06-17T15:26:58.406Z,26.43
2023-06-17T15:29:25.093Z,26.32
2023-06-17T15:31:51.655Z,26.18
2023-06-17T15:34:18.811Z,26.22
2023-06-17T15:36:45.413Z,26.31
2023-06-17T15:39:21.824Z,26.51
2023-06-17T15:41:50.411Z,26.66
2023-06-17T15:44:20.335Z,26.56
2023-06-17T15:46:47.290Z,26.30
2023-06-17T15:49:14.101Z,26.05
2023-06-17T15:51:40.657Z,25.98
2023-06-17T15:54:07.319Z,25.90
2023-06-17T15:56:36.406Z,25.85
2023-06-17T15:59:03.947Z,25.86
2023-06-17T16:01:30.803Z,25.84
2023-06-17T16:03:58.098Z,25.90
2023-06-17T16:06:24.757Z,26.06
2023-06-17T16:08:52.334Z,26.13
2023-06-17T16:11:19.638Z,26.02
2023-06-17T16:13:46.355Z,25.98
2023-06-17T16:16:12.992Z,25.81
2023-06-17T16:18:39.745Z,25.54
2023-06-17T16:21:06.286Z,25.19
2023-06-17T16:23:32.844Z,25.06
2023-06-17T16:26:00.094Z,25.05
2023-06-17T16:28:26.876Z,25.02
2023-06-17T16:30:53.455Z,25.00
2023-06-17T16:33:19.977Z,24.96
2023-06-17T16:35:46.543Z,24.86
2023-06-17T16:38:13.067Z,24.78
2023-06-17T16:40:39.607Z,24.78
2023-06-17T16:43:06.156Z,24.76
2023-06-17T16:45:32.755Z,24.75
2023-06-17T16:48:02.399Z,24.69
2023-06-17T16:50:28.881Z,24.62
2023-06-17T16:52:55.736Z,24.56
2023-06-17T16:55:22.291Z,24.49
2023-06-17T16:57:48.794Z,24.42
2023-06-17T17:00:15.434Z,24.34
2023-06-17T17:02:42.051Z,24.30
2023-06-17T17:05:08.814Z,24.22
2023-06-17T17:07:35.535Z,24.17
2023-06-17T17:10:02.622Z,24.14
2023-06-17T17:12:29.242Z,24.12
2023-06-17T17:14:57.748Z,24.05
2023-06-17T17:17:24.324Z,24.04
2023-06-17T17:19:51.331Z,24.00
2023-06-17T17:22:17.890Z,23.95
2023-06-17T17:24:44.698Z,23.89
2023-06-17T17:27:11.749Z,23.83
2023-06-17T17:29:38.368Z,23.75
2023-06-17T17:32:05.652Z,23.69
2023-06-17T17:34:32.433Z,23.64
2023-06-17T17:36:59.229Z,23.59
2023-06-17T17:39:25.861Z,23.54
2023-06-17T17:41:52.430Z,23.50
2023-06-17T17:44:19.021Z,23.45
2023-06-17T17:46:45.624Z,23.40
2023-06-17T17:49:12.237Z,23.36
2023-06-17T17:51:38.881Z,23.31
2023-06-17T17:54:05.456Z,23.29
2023-06-17T17:56:32.289Z,23.24
2023-06-17T17:58:59.150Z,23.18
2023-06-17T18:01:26.322Z,23.13
2023-06-17T18:03:53.104Z,23.05
2023-06-17T18:06:19.811Z,22.99
2023-06-17T18:08:46.510Z,22.93
2023-06-17T18:11:14.170Z,22.87
2023-06-17T18:13:40.721Z,22.80
2023-06-17T18:16:07.587Z,22.74
2023-06-17T18:18:34.247Z,22.67
2023-06-17T18:21:00.918Z,22.60
2023-06-17T18:23:28.264Z,22.53
2023-06-17T18:25:54.966Z,22.46
2023-06-17T18:28:21.486Z,22.40
2023-06-17T18:30:48.051Z,22.34
2023-06-17T18:33:14.623Z,22.30
2023-06-17T18:35:41.171Z,22.21
2023-06-17T18:38:09.497Z,22.08
2023-06-17T18:40:36.352Z,21.89
2023-06-17T18:43:02.904Z,21.73
2023-06-17T18:45:29.526Z,21.57
2023-06-17T18:47:56.300Z,21.43
2023-06-17T18:50:23.623Z,21.30
2023-06-17T18:52:52.169Z,21.18
2023-06-17T18:55:18.927Z,21.05
2023-06-17T18:57:45.699Z,20.93
2023-06-17T19:00:12.679Z,20.81
2023-06-17T19:02:39.364Z,20.66
2023-06-17T19:05:07.036Z,20.55
2023-06-17T19:07:33.944Z,20.43
2023-06-17T19:10:01.817Z,20.32
2023-06-17T19:12:31.200Z,20.21
2023-06-17T19:14:58.619Z,20.05
2023-06-17T19:17:28.600Z,19.92
2023-06-17T19:19:58.768Z,19.86
2023-06-17T19:22:28.411Z,19.73
2023-06-17T19:24:56.514Z,19.58
2023-06-17T19:27:24.928Z,19.41
2023-06-17T19:29:51.524Z,19.22
2023-06-17T19:32:19.176Z,19.13
2023-06-17T19:34:48.315Z,19.08
2023-06-17T19:37:15.345Z,18.99
2023-06-17T19:39:41.886Z,18.90
2023-06-17T19:42:08.500Z,18.83
2023-06-17T19:44:37.015Z,18.77
2023-06-17T19:47:05.805Z,18.63
2023-06-17T19:49:32.440Z,18.54
2023-06-17T19:51:59.538Z,18.43
2023-06-17T19:54:28.593Z,18.35
2023-06-17T19:56:55.629Z,18.33
2023-06-17T19:59:22.130Z,18.21
2023-06-17T20:01:50.924Z,18.15
2023-06-17T20:04:17.888Z,18.03
2023-06-17T20:06:44.433Z,17.88
2023-06-17T20:09:11.146Z,17.77
2023-06-17T20:11:38.788Z,17.65
2023-06-17T20:14:05.429Z,17.59
2023-06-17T20:16:32.083Z,17.63
2023-06-17T20:18:58.713Z,17.56
2023-06-17T20:21:25.363Z,17.34
2023-06-17T20:23:51.951Z,17.22
2023-06-17T20:26:18.523Z,17.11
2023-06-17T20:28:45.063Z,17.03
2023-06-17T20:31:14.202Z,16.99
2023-06-17T20:33:40.734Z,16.86
2023-06-17T20:36:07.404Z,16.79
2023-06-17T20:38:34.022Z,16.83
2023-06-17T20:41:00.927Z,16.73
2023-06-17T20:43:27.470Z,16.58
2023-06-17T20:45:55.125Z,16.49
2023-06-17T20:48:21.666Z,16.42
2023-06-17T20:50:51.086Z,16.40
2023-06-17T20:53:17.649Z,16.37
2023-06-17T20:55:45.008Z,16.26
2023-06-17T20:58:11.660Z,16.20
2023-06-17T21:00:38.325Z,16.13
2023-06-17T21:03:05.292Z,16.07
2023-06-17T21:05:32.298Z,16.03
2023-06-17T21:07:58.895Z,15.98
2023-06-17T21:10:25.591Z,15.91
2023-06-17T21:12:52.400Z,15.85
2023-06-17T21:15:20.173Z,15.80
2023-06-17T21:17:46.761Z,15.90
2023-06-17T21:20:13.393Z,15.91
2023-06-17T21:22:40.096Z,15.79
2023-06-17T21:25:07.639Z,15.71
2023-06-17T21:27:34.152Z,15.60
2023-06-17T21:30:01.344Z,15.53
2023-06-17T21:32:29.064Z,15.55
2023-06-17T21:34:55.626Z,15.56
2023-06-17T21:37:23.201Z,15.61
2023-06-17T21:39:50.797Z,15.58
2023-06-17T21:42:17.590Z,15.58
2023-06-17T21:44:44.610Z,15.55
2023-06-17T21:47:11.176Z,15.53
2023-06-17T21:49:37.786Z,15.53
2023-06-17T21:52:05.009Z,15.55
2023-06-17T21:54:33.103Z,15.48
2023-06-17T21:56:59.879Z,15.48
2023-06-17T21:59:26.472Z,15.50
2023-06-17T22:01:53.125Z,15.48
2023-06-17T22:04:19.695Z,15.40
2023-06-17T22:06:46.336Z,15.33
2023-06-17T22:09:12.965Z,15.29
2023-06-17T22:11:39.484Z,15.27
2023-06-17T22:14:07.230Z,15.22
2023-06-17T22:16:33.856Z,15.23
2023-06-17T22:19:00.417Z,15.19
2023-06-17T22:21:26.929Z,15.15
2023-06-17T22:23:53.472Z,15.11
2023-06-17T22:26:20.286Z,15.10
2023-06-17T22:28:47.997Z,15.06
2023-06-17T22:31:15.833Z,15.03
2023-06-17T22:33:42.381Z,15.02
2023-06-17T22:36:09.151Z,15.04
2023-06-17T22:38:36.791Z,15.05
2023-06-17T22:41:03.363Z,14.97
2023-06-17T22:43:30.198Z,14.94
2023-06-17T22:45:56.702Z,14.90
2023-06-17T22:48:23.243Z,14.92
2023-06-17T22:50:49.747Z,14.88
2023-06-17T22:53:16.393Z,14.86
2023-06-17T22:55:43.961Z,14.85
2023-06-17T22:58:10.657Z,14.76
2023-06-17T23:00:37.304Z,14.73
2023-06-17T23:03:04.004Z,14.69
2023-06-17T23:05:30.968Z,14.63
2023-06-17T23:07:57.539Z,14.59
2023-06-17T23:10:24.418Z,14.60
2023-06-17T23:12:51.292Z,14.52
2023-06-17T23:15:17.890Z,14.48
2023-06-17T23:17:44.492Z,14.47
2023-06-17T23:20:11.467Z,14.43
2023-06-17T23:22:38.259Z,14.40
2023-06-17T23:25:07.843Z,14.35
2023-06-17T23:27:34.752Z,14.29
2023-06-17T23:30:01.980Z,14.26
2023-06-17T23:32:28.822Z,14.30
2023-06-17T23:34:55.909Z,14.28
2023-06-17T23:37:22.880Z,14.26
2023-06-17T23:39:49.434Z,14.31
2023-06-17T23:42:15.996Z,14.25
2023-06-17T23:44:43.669Z,14.21
2023-06-17T23:47:16.106Z,14.20
2023-06-17T23:49:42.752Z,14.14
2023-06-17T23:52:10.951Z,14.08
2023-06-17T23:54:38.165Z,14.01
2023-06-17T23:57:05.222Z,13.99
2023-06-17T23:59:32.840Z,14.00
